• Join FlightAware (Why Join?)
  • Login
  • US Flag 
10:46AM EDT


 

Airport Tracker/Info


-or-


 

Live Flight TrackerFlight Track Log ✈ N830QS ✈ 15-Aug-2013 ✈ KSFO - KSUN

Flight Track Log - Related Links

Times and Time Zones

All times are in EDT time to prevent confusion due to time zone crossing. See the N830QS flight status page for this flight to view local times or setup timezone preferences in your user account.

Time Position Orientation Groundspeed Altitude Reporting Facility
EDT Latitude Longitude Course Direction KTS MPH feet Rate Location/Type
04:26PM 37.6667 -122.3167 38° Northeast 236 272 3,100  Level Northern Cal TRACON
04:27PM 37.7167 -122.2667 38° Northeast 267 307 5,900 2,700 Climbing Northern Cal TRACON
04:28PM 37.8000 -122.2333 18° North 293 337 8,500 2,760 Climbing Northern Cal TRACON
04:29PM 37.8667 -122.1667 38° Northeast 302 348 11,500 2,640 Climbing Northern Cal TRACON
04:30PM 37.9011 -122.1256 43° Northeast 309 356 13,200 2,280 Climbing Oakland Center
04:31PM 37.9697 -122.0528 40° Northeast 319 367 15,600 2,160 Climbing Oakland Center
04:32PM 38.0414 -121.9767 40° Northeast 331 381 17,700 2,520 Climbing Oakland Center
04:33PM 38.1150 -121.8994 40° Northeast 343 395 20,800 3,120 Climbing Oakland Center
04:34PM 38.1981 -121.8119 40° Northeast 328 377 24,200 2,580 Climbing Oakland Center
04:35PM 38.2686 -121.7369 40° Northeast 330 380 26,200 1,440 Climbing Oakland Center
04:36PM 38.3486 -121.6522 40° Northeast 372 428 27,200 1,020 Climbing Oakland Center
04:37PM 38.4386 -121.5564 40° Northeast 407 468 28,400 1,260 Climbing Oakland Center
04:38PM 38.5075 -121.4417 52° Northeast 417 480 29,900 1,560 Climbing Oakland Center
04:39PM 38.5772 -121.3214 53° Northeast 422 486 31,600 1,500 Climbing Oakland Center
04:40PM 38.6475 -121.1992 54° Northeast 425 489 33,000 1,560 Climbing Oakland Center
04:41PM 38.7278 -121.0633 53° Northeast 425 489 34,900 1,620 Climbing Oakland Center
04:42PM 38.7969 -120.9431 54° Northeast 419 482 36,400 1,320 Climbing Oakland Center
04:43PM 38.8661 -120.8225 54° Northeast 420 483 37,700 1,260 Climbing Oakland Center
04:44PM 38.9358 -120.7022 53° Northeast 419 482 39,100 1,200 Climbing Oakland Center
04:45PM 39.0050 -120.5825 53° Northeast 417 480 40,300 900 Climbing Oakland Center
04:46PM 39.0872 -120.4378 54° Northeast 418 481 41,000 300 Climbing Oakland Center
04:47PM 39.1603 -120.3122 53° Northeast 436 502 41,000  Level Oakland Center
04:48PM 39.2361 -120.1786 54° Northeast 458 527 41,000  Level Oakland Center
04:49PM 39.3069 -120.0550 53° Northeast 466 536 41,000  Level Oakland Center
04:50PM 39.3872 -119.9147 53° Northeast 477 549 41,000  Level Oakland Center
04:51PM 39.4806 -119.7489 54° Northeast 479 551 41,000  Level Oakland Center
04:52PM 39.5583 -119.6094 54° Northeast 476 548 41,000  Level Oakland Center
04:53PM 39.6361 -119.4697 54° Northeast 479 551 41,000  Level Oakland Center
04:54PM 39.7181 -119.3269 53° Northeast 487 560 41,000  Level Oakland Center
04:55PM 39.8022 -119.1914 51° Northeast 481 554 41,000  Level Oakland Center
04:56PM 39.8853 -119.0544 52° Northeast 479 551 41,000  Level Oakland Center
04:57PM 39.9689 -118.9172 51° Northeast 480 552 41,000  Level Oakland Center
04:58PM 40.0528 -118.7794 51° Northeast 481 554 41,000  Level Oakland Center
04:59PM 40.1353 -118.6397 52° Northeast 482 555 41,000  Level Oakland Center
05:00PM 40.2258 -118.4933 51° Northeast 484 557 41,000  Level Salt Lake Center
05:01PM 40.3047 -118.3611 52° Northeast 481 554 41,000  Level Salt Lake Center
05:02PM 40.3964 -118.2064 52° Northeast 481 554 41,000  Level Salt Lake Center
05:04PM 40.4825 -118.0603 52° Northeast 478 550 41,000  Level Oakland Center
05:05PM 40.5669 -117.9169 52° Northeast 481 554 41,000  Level Oakland Center
05:06PM 40.6464 -117.7847 52° Northeast 482 555 41,000  Level Salt Lake Center
05:07PM 40.7242 -117.6522 52° Northeast 478 550 41,000  Level Salt Lake Center
05:08PM 40.8169 -117.4939 52° Northeast 483 556 41,000  Level Salt Lake Center
05:09PM 40.8944 -117.3600 53° Northeast 481 554 41,000  Level Salt Lake Center
05:10PM 40.9847 -117.2019 53° Northeast 480 552 41,000  Level Salt Lake Center
05:11PM 41.0633 -117.0658 53° Northeast 481 554 41,000  Level Salt Lake Center
05:12PM 41.1414 -116.9308 52° Northeast 481 554 41,000  Level Salt Lake Center
05:13PM 41.2308 -116.7722 53° Northeast 479 551 41,000  Level Salt Lake Center
05:14PM 41.3078 -116.6369 53° Northeast 479 551 41,000  Level Salt Lake Center
05:15PM 41.3989 -116.4781 53° Northeast 481 554 41,000  Level Salt Lake Center
05:16PM 41.4758 -116.3411 53° Northeast 481 554 41,000  Level Salt Lake Center
05:17PM 41.5642 -116.1789 54° Northeast 483 556 41,000  Level Salt Lake Center
05:18PM 41.6406 -116.0414 53° Northeast 482 555 41,000  Level Salt Lake Center
05:19PM 41.7294 -115.8806 53° Northeast 481 554 41,000  Level Salt Lake Center
05:20PM 41.8050 -115.7417 54° Northeast 481 554 41,000  Level Salt Lake Center
05:21PM 41.8942 -115.5817 53° Northeast 479 551 41,000 -720 Level Salt Lake Center
05:22PM 41.9686 -115.4436 54° Northeast 476 548 39,600 -1,800 Descending Salt Lake Center
05:23PM 42.0519 -115.2883 54° Northeast 454 522 37,400 -2,100 Descending Salt Lake Center
05:24PM 42.1242 -115.1561 54° Northeast 438 504 35,300 -2,160 Descending Salt Lake Center
05:25PM 42.2147 -115.0481 41° Northeast 420 483 33,000 -2,400 Descending Salt Lake Center
05:26PM 42.3192 -114.9736 28° Northeast 408 470 30,400 -2,400 Descending Salt Lake Center
05:27PM 42.4281 -114.8928 29° Northeast 425 489 28,100 -1,200 Descending Salt Lake Center
05:28PM 42.5333 -114.8150 29° Northeast 432 497 28,000 -300 Descending Salt Lake Center
05:29PM 42.6442 -114.7336 28° Northeast 450 518 27,600 -1,260 Descending Salt Lake Center
05:30PM 42.7556 -114.6517 28° Northeast 438 504 25,400 -2,100 Descending Salt Lake Center
05:31PM 42.8578 -114.5758 29° Northeast 409 471 23,300 -2,040 Descending Salt Lake Center
05:32PM 42.9553 -114.5039 28° Northeast 388 447 21,200 -2,340 Descending Salt Lake Center
05:33PM 43.0478 -114.4350 29° Northeast 368 423 18,500 -2,760 Descending Salt Lake Center
05:34PM 43.1356 -114.3697 28° Northeast 347 399 15,500 -3,000 Descending Salt Lake Center
05:36PM 43.2175 -114.3092 28° Northeast 328 377 12,400 -2,640 Descending Salt Lake Center
05:37PM 43.2892 -114.2758 19° North 312 359 10,100 -2,280 Descending Salt Lake Center
05:39PM 43.5000 -114.2833 North  Level FlightAware Approximate